createdAt,value
2023-05-08T00:00:08.156Z,22.77
2023-05-08T00:02:34.936Z,21.02
2023-05-08T00:05:01.807Z,21.35
2023-05-08T00:07:28.576Z,22.63
2023-05-08T00:09:55.305Z,20.85
2023-05-08T00:12:21.953Z,20.15
2023-05-08T00:14:48.555Z,19.27
2023-05-08T00:17:15.351Z,19.75
2023-05-08T00:19:41.954Z,20.05
2023-05-08T00:22:08.572Z,21.95
2023-05-08T00:24:35.224Z,21.77
2023-05-08T00:27:01.828Z,22.67
2023-05-08T00:29:28.793Z,23.70
2023-05-08T00:31:55.492Z,24.00
2023-05-08T00:34:22.264Z,23.52
2023-05-08T00:36:48.905Z,24.27
2023-05-08T00:39:15.666Z,24.38
2023-05-08T00:41:42.619Z,22.83
2023-05-08T00:44:09.409Z,21.45
2023-05-08T00:46:36.913Z,20.02
2023-05-08T00:49:05.645Z,22.52
2023-05-08T00:51:33.810Z,24.38
2023-05-08T00:54:00.677Z,26.92
2023-05-08T00:56:29.396Z,24.55
2023-05-08T00:58:56.984Z,26.00
2023-05-08T01:01:24.211Z,23.80
2023-05-08T01:03:51.117Z,24.88
2023-05-08T01:06:17.860Z,25.77
2023-05-08T01:08:45.902Z,23.63
2023-05-08T01:11:21.781Z,27.05
2023-05-08T01:14:10.034Z,26.33
2023-05-08T01:16:48.599Z,29.52
2023-05-08T01:19:52.752Z,35.42
2023-05-08T01:22:47.110Z,40.35
2023-05-08T01:25:40.552Z,37.33
2023-05-08T01:28:19.523Z,43.25
2023-05-08T01:30:55.371Z,42.00
2023-05-08T01:33:33.470Z,46.42
2023-05-08T01:36:09.459Z,54.55
2023-05-08T01:38:52.358Z,55.75
2023-05-08T01:41:27.836Z,62.97
2023-05-08T01:44:10.942Z,64.63
2023-05-08T01:46:37.772Z,67.03
2023-05-08T01:49:17.616Z,62.55
2023-05-08T01:51:48.596Z,70.78
2023-05-08T01:54:19.786Z,69.32
2023-05-08T01:56:48.891Z,73.55
2023-05-08T01:59:20.530Z,71.88
2023-05-08T02:01:49.353Z,70.45
2023-05-08T02:04:17.167Z,75.47
2023-05-08T02:06:44.576Z,76.22
2023-05-08T02:09:12.534Z,72.68
2023-05-08T02:11:42.431Z,73.47
2023-05-08T02:14:12.378Z,70.07
2023-05-08T02:16:42.031Z,73.57
2023-05-08T02:19:11.641Z,71.30
2023-05-08T02:21:41.870Z,68.15
2023-05-08T02:24:09.170Z,65.72
2023-05-08T02:26:37.694Z,68.30
2023-05-08T02:29:04.486Z,64.82
2023-05-08T02:31:31.699Z,64.78
2023-05-08T02:33:59.654Z,61.85
2023-05-08T02:36:28.977Z,69.00
2023-05-08T02:38:58.674Z,71.20
2023-05-08T02:41:29.714Z,68.45
2023-05-08T02:43:57.040Z,67.80
2023-05-08T02:46:49.386Z,66.05
2023-05-08T02:49:29.084Z,72.03
2023-05-08T02:52:18.453Z,69.28
2023-05-08T02:55:01.744Z,64.80
2023-05-08T02:57:46.889Z,67.13
2023-05-08T03:02:49.036Z,62.70
2023-05-08T03:05:19.502Z,60.95
2023-05-08T03:07:49.711Z,72.53
2023-05-08T03:10:18.449Z,72.07
2023-05-08T03:12:48.568Z,73.47
2023-05-08T03:15:28.338Z,70.18
2023-05-08T03:17:58.602Z,66.30
2023-05-08T03:20:28.357Z,67.72
2023-05-08T03:22:55.958Z,68.93
2023-05-08T03:25:23.492Z,71.70
2023-05-08T03:27:51.960Z,75.57
2023-05-08T03:30:20.562Z,78.50
2023-05-08T03:32:49.692Z,80.38
2023-05-08T03:35:17.192Z,81.90
2023-05-08T03:37:45.532Z,85.53
2023-05-08T03:40:12.923Z,82.20
2023-05-08T03:42:40.873Z,85.50
2023-05-08T03:45:10.690Z,83.97
2023-05-08T03:47:37.967Z,83.70
2023-05-08T03:50:05.426Z,77.30
2023-05-08T03:52:32.585Z,89.40
2023-05-08T03:54:59.331Z,95.00
2023-05-08T03:57:40.206Z,94.35
2023-05-08T04:00:13.592Z,95.40
2023-05-08T04:03:00.844Z,99.38
2023-05-08T04:05:50.076Z,93.93
2023-05-08T04:08:22.486Z,102.93
2023-05-08T04:11:09.736Z,103.55
2023-05-08T04:13:43.229Z,94.43
2023-05-08T04:16:26.920Z,93.80
2023-05-08T04:19:02.121Z,98.97
2023-05-08T04:21:31.416Z,98.22
2023-05-08T04:23:58.857Z,91.05
2023-05-08T04:26:25.924Z,97.68
2023-05-08T04:28:53.290Z,98.10
2023-05-08T04:31:20.072Z,93.30
2023-05-08T04:33:47.379Z,96.65
2023-05-08T04:36:14.782Z,95.18
2023-05-08T04:38:41.521Z,101.88
2023-05-08T04:41:08.664Z,100.97
2023-05-08T04:43:36.494Z,99.03
2023-05-08T04:46:05.282Z,102.03
2023-05-08T04:48:33.806Z,99.57
2023-05-08T04:51:00.902Z,100.85
2023-05-08T04:53:27.593Z,105.10
2023-05-08T04:55:54.252Z,107.90
2023-05-08T04:58:21.023Z,106.13
2023-05-08T05:00:48.869Z,99.72
2023-05-08T05:03:15.707Z,105.75
2023-05-08T05:05:42.548Z,100.32
2023-05-08T05:08:09.224Z,99.10
2023-05-08T05:10:35.936Z,103.35
2023-05-08T05:13:05.126Z,102.45
2023-05-08T05:15:31.785Z,91.55
2023-05-08T05:17:58.550Z,102.85
2023-05-08T05:20:25.212Z,101.00
2023-05-08T05:22:51.904Z,101.68
2023-05-08T05:25:18.645Z,100.68
2023-05-08T05:27:45.270Z,103.05
2023-05-08T05:30:12.662Z,96.50
2023-05-08T05:32:39.565Z,98.75
2023-05-08T05:35:06.840Z,97.82
2023-05-08T05:37:35.069Z,97.43
2023-05-08T05:40:01.902Z,95.80
2023-05-08T05:42:28.587Z,99.82
2023-05-08T05:44:56.877Z,99.03
2023-05-08T05:47:23.722Z,98.13
2023-05-08T05:49:50.377Z,99.15
2023-05-08T05:52:17.213Z,90.13
2023-05-08T05:54:43.868Z,93.88
2023-05-08T05:57:10.544Z,95.00
2023-05-08T05:59:37.295Z,98.90
2023-05-08T06:02:04.049Z,97.65
2023-05-08T06:04:30.808Z,100.13
2023-05-08T06:06:57.511Z,96.70
2023-05-08T06:09:24.275Z,101.03
2023-05-08T06:11:51.225Z,84.78
2023-05-08T06:14:17.858Z,97.38
2023-05-08T06:16:44.998Z,99.25
2023-05-08T06:19:12.107Z,92.55
2023-05-08T06:21:39.858Z,103.47
2023-05-08T06:24:06.935Z,99.93
2023-05-08T06:26:33.608Z,86.13
2023-05-08T06:29:00.248Z,101.05
2023-05-08T06:31:27.290Z,92.47
2023-05-08T06:33:54.004Z,101.32
2023-05-08T06:36:20.756Z,83.05
2023-05-08T06:38:47.425Z,96.60
2023-05-08T06:41:15.397Z,97.43
2023-05-08T06:43:42.293Z,90.88
2023-05-08T06:46:09.010Z,89.88
2023-05-08T06:48:35.822Z,77.38
2023-05-08T06:51:02.675Z,89.07
2023-05-08T06:53:29.374Z,86.80
2023-05-08T06:55:57.871Z,82.60
2023-05-08T06:58:24.848Z,84.20
2023-05-08T07:00:51.621Z,75.45
2023-05-08T07:03:18.275Z,77.18
2023-05-08T07:05:45.044Z,71.60
2023-05-08T07:08:11.689Z,60.10
2023-05-08T07:10:38.325Z,43.85
2023-05-08T07:13:05.199Z,58.40
2023-05-08T07:15:32.376Z,71.82
2023-05-08T07:17:59.101Z,71.95
2023-05-08T07:20:25.894Z,70.78
2023-05-08T07:22:52.688Z,50.72
2023-05-08T07:25:19.973Z,63.20
2023-05-08T07:27:46.716Z,62.20
2023-05-08T07:30:13.736Z,64.18
2023-05-08T07:32:40.646Z,65.18
2023-05-08T07:35:10.981Z,64.35
2023-05-08T07:37:41.456Z,64.35
2023-05-08T07:40:08.946Z,59.03
2023-05-08T07:42:42.720Z,52.22
2023-05-08T07:45:11.751Z,50.53
2023-05-08T07:47:39.757Z,47.25
2023-05-08T07:50:07.040Z,48.40
2023-05-08T07:52:33.778Z,53.85
2023-05-08T07:55:00.419Z,33.40
2023-05-08T07:57:27.027Z,50.75
2023-05-08T07:59:53.711Z,48.40
2023-05-08T08:02:20.418Z,48.72
2023-05-08T08:04:47.084Z,49.75
2023-05-08T08:07:14.807Z,44.53
2023-05-08T08:09:41.534Z,29.83
2023-05-08T08:12:08.232Z,38.22
2023-05-08T08:14:35.008Z,36.78
2023-05-08T08:17:01.731Z,37.85
2023-05-08T08:19:28.411Z,39.58
2023-05-08T08:21:55.012Z,32.58
2023-05-08T08:24:21.705Z,40.03
2023-05-08T08:26:48.323Z,29.60
2023-05-08T08:29:15.100Z,36.30
2023-05-08T08:31:41.794Z,31.65
2023-05-08T08:34:08.498Z,20.88
2023-05-08T08:36:35.220Z,22.92
2023-05-08T08:39:01.824Z,27.42
2023-05-08T08:41:28.533Z,33.92
2023-05-08T08:43:55.577Z,28.10
2023-05-08T08:46:26.351Z,38.30
2023-05-08T08:48:56.463Z,37.83
2023-05-08T08:51:28.885Z,28.92
2023-05-08T08:54:06.854Z,24.92
2023-05-08T08:56:36.069Z,30.60
2023-05-08T08:59:04.540Z,34.60
2023-05-08T09:01:34.290Z,35.85
2023-05-08T09:04:01.281Z,28.38
2023-05-08T09:06:29.020Z,28.73
2023-05-08T09:08:57.911Z,40.33
2023-05-08T09:11:24.868Z,36.97
2023-05-08T09:13:51.829Z,36.45
2023-05-08T09:16:18.851Z,27.08
2023-05-08T09:18:45.598Z,32.58
2023-05-08T09:21:12.826Z,37.38
2023-05-08T09:23:55.799Z,31.13
2023-05-08T09:26:37.051Z,37.63
2023-05-08T09:29:18.096Z,37.20
2023-05-08T09:31:46.928Z,41.80
2023-05-08T09:34:39.690Z,30.85
2023-05-08T09:37:06.338Z,36.47
2023-05-08T09:39:33.056Z,35.88
2023-05-08T09:42:01.073Z,36.25
2023-05-08T09:44:28.131Z,27.23
2023-05-08T09:47:13.117Z,31.42
2023-05-08T09:49:40.641Z,36.33
2023-05-08T09:52:08.293Z,30.30
2023-05-08T09:54:35.174Z,34.28
2023-05-08T09:57:12.308Z,29.63
2023-05-08T09:59:39.002Z,31.90
2023-05-08T10:02:12.846Z,30.23
2023-05-08T10:04:39.546Z,34.30
2023-05-08T10:07:06.234Z,35.35
2023-05-08T10:09:47.066Z,25.10
2023-05-08T10:12:16.664Z,21.63
2023-05-08T10:14:46.389Z,27.98
2023-05-08T10:17:16.835Z,31.58
2023-05-08T10:19:48.309Z,31.13
2023-05-08T10:22:15.786Z,22.85
2023-05-08T10:24:45.824Z,23.75
2023-05-08T10:27:30.408Z,23.73
2023-05-08T10:30:04.164Z,24.95
2023-05-08T10:32:43.153Z,24.50
2023-05-08T10:35:11.997Z,22.95
2023-05-08T10:37:39.935Z,27.83
2023-05-08T10:40:07.441Z,29.20
2023-05-08T10:42:37.532Z,16.08
2023-05-08T10:45:06.369Z,31.25
2023-05-08T10:48:03.563Z,27.33
2023-05-08T10:50:58.050Z,31.98
2023-05-08T10:53:51.805Z,24.30
2023-05-08T10:56:18.509Z,28.02
2023-05-08T10:58:45.392Z,25.52
2023-05-08T11:01:13.491Z,17.15
2023-05-08T11:03:48.159Z,20.70
2023-05-08T11:06:15.336Z,20.17
2023-05-08T11:08:54.493Z,28.08
2023-05-08T11:11:26.838Z,24.92
2023-05-08T11:14:09.409Z,30.55
2023-05-08T11:16:54.264Z,24.95
2023-05-08T11:19:26.930Z,29.33
2023-05-08T11:22:29.073Z,22.85
2023-05-08T11:24:56.950Z,26.33
2023-05-08T11:27:35.636Z,25.90
2023-05-08T11:30:19.603Z,24.60
2023-05-08T11:33:04.897Z,21.53
2023-05-08T11:35:54.017Z,28.40
2023-05-08T11:38:22.191Z,27.73
2023-05-08T11:41:06.112Z,25.88
2023-05-08T11:43:41.642Z,27.60
2023-05-08T11:46:19.473Z,29.02
2023-05-08T11:48:46.373Z,23.17
2023-05-08T11:51:13.768Z,20.90
2023-05-08T11:53:40.869Z,27.77
2023-05-08T11:56:08.141Z,21.48
2023-05-08T11:58:36.537Z,26.95
2023-05-08T12:01:03.592Z,26.33
2023-05-08T12:03:30.643Z,19.35
2023-05-08T12:05:59.190Z,23.00
2023-05-08T12:08:26.209Z,19.38
2023-05-08T12:10:54.052Z,21.35
2023-05-08T12:13:25.959Z,21.58
2023-05-08T12:15:57.614Z,20.75
2023-05-08T12:18:26.717Z,25.25
2023-05-08T12:20:56.917Z,25.33
2023-05-08T12:23:25.981Z,24.15
2023-05-08T12:25:56.488Z,22.00
2023-05-08T12:28:23.120Z,21.63
2023-05-08T12:30:50.352Z,23.02
2023-05-08T12:33:18.494Z,26.52
2023-05-08T12:35:45.258Z,24.60
2023-05-08T12:38:12.226Z,26.80
2023-05-08T12:40:43.916Z,23.10
2023-05-08T12:43:11.269Z,31.92
2023-05-08T12:45:40.026Z,29.48
2023-05-08T12:48:13.402Z,26.42
2023-05-08T12:50:44.675Z,29.13
2023-05-08T12:53:13.644Z,29.80
2023-05-08T12:55:51.853Z,42.70
2023-05-08T12:58:19.642Z,38.05
2023-05-08T13:00:48.397Z,46.97
2023-05-08T13:03:26.661Z,43.45
2023-05-08T13:05:55.124Z,39.33
2023-05-08T13:08:33.686Z,43.53
2023-05-08T13:11:01.577Z,46.60
2023-05-08T13:13:30.793Z,42.92
2023-05-08T13:15:58.125Z,53.70
2023-05-08T13:18:28.093Z,43.05
2023-05-08T13:20:58.104Z,38.72
2023-05-08T13:23:24.885Z,52.40
2023-05-08T13:25:51.622Z,42.30
2023-05-08T13:28:18.309Z,45.10
2023-05-08T13:30:44.958Z,41.22
2023-05-08T13:33:11.620Z,37.63
2023-05-08T13:35:38.333Z,38.63
2023-05-08T13:38:05.962Z,35.83
2023-05-08T13:40:32.678Z,39.20
2023-05-08T13:42:59.284Z,34.78
2023-05-08T13:45:26.033Z,22.10
2023-05-08T13:47:52.895Z,31.50
2023-05-08T13:50:21.771Z,40.30
2023-05-08T13:52:49.053Z,36.33
2023-05-08T13:55:16.505Z,37.90
2023-05-08T13:57:43.456Z,34.95
2023-05-08T14:00:11.126Z,34.00
2023-05-08T14:02:38.325Z,34.88
2023-05-08T14:05:07.952Z,30.48
2023-05-08T14:07:35.627Z,27.63
2023-05-08T14:10:02.537Z,33.00
2023-05-08T14:12:29.495Z,30.92
2023-05-08T14:14:56.458Z,26.98
2023-05-08T14:17:23.197Z,24.45
2023-05-08T14:19:49.892Z,28.98
2023-05-08T14:22:16.589Z,25.77
2023-05-08T14:24:44.173Z,27.27
2023-05-08T14:27:11.137Z,27.42
2023-05-08T14:29:38.047Z,29.20
2023-05-08T14:32:05.193Z,29.15
2023-05-08T14:34:32.018Z,17.50
2023-05-08T14:36:58.864Z,22.73
2023-05-08T14:39:25.765Z,17.42
2023-05-08T14:42:17.793Z,18.38
2023-05-08T14:44:39.446Z,25.15
2023-05-08T14:47:06.569Z,23.13
2023-05-08T14:49:38.084Z,25.10
2023-05-08T14:52:06.308Z,18.92
2023-05-08T14:54:33.588Z,21.63
2023-05-08T14:57:00.609Z,19.83
2023-05-08T14:59:27.238Z,20.70
2023-05-08T15:01:54.089Z,19.95
2023-05-08T15:04:20.970Z,18.60
2023-05-08T15:06:47.803Z,20.27
2023-05-08T15:09:16.462Z,20.08
2023-05-08T15:11:43.264Z,16.63
2023-05-08T15:14:09.945Z,18.40
2023-05-08T15:16:36.814Z,17.05
2023-05-08T15:19:03.522Z,17.00
2023-05-08T15:21:30.283Z,15.63
2023-05-08T15:23:56.897Z,13.95
2023-05-08T15:26:23.650Z,18.85
2023-05-08T15:28:50.974Z,17.35
2023-05-08T15:31:18.343Z,16.58
2023-05-08T15:33:45.559Z,15.32
2023-05-08T15:36:15.828Z,17.05
2023-05-08T15:38:42.950Z,12.52
2023-05-08T15:41:14.666Z,17.05
2023-05-08T15:43:42.171Z,15.35
2023-05-08T15:46:08.951Z,13.40
2023-05-08T15:48:35.682Z,12.68
2023-05-08T15:51:02.412Z,17.20
2023-05-08T15:53:29.049Z,18.63
2023-05-08T15:55:56.979Z,16.60
2023-05-08T15:58:23.881Z,15.27
2023-05-08T16:00:50.709Z,16.67
2023-05-08T16:03:17.752Z,19.55
2023-05-08T16:05:44.784Z,18.70
2023-05-08T16:08:12.809Z,18.58
2023-05-08T16:10:42.932Z,22.73
2023-05-08T16:13:09.914Z,21.05
2023-05-08T16:15:36.706Z,17.38
2023-05-08T16:18:03.581Z,23.08
2023-05-08T16:20:31.114Z,19.92
2023-05-08T16:22:59.660Z,24.67
2023-05-08T16:25:26.378Z,25.83
2023-05-08T16:27:53.105Z,28.05
2023-05-08T16:30:19.983Z,25.45
2023-05-08T16:32:46.960Z,24.98
2023-05-08T16:35:14.631Z,26.92
2023-05-08T16:37:41.815Z,25.13
2023-05-08T16:40:09.467Z,25.10
2023-05-08T16:42:36.869Z,20.52
2023-05-08T16:45:06.802Z,25.83
2023-05-08T16:47:34.406Z,22.58
2023-05-08T16:50:01.264Z,22.35
2023-05-08T16:52:28.437Z,21.63
2023-05-08T16:54:55.199Z,23.13
2023-05-08T16:57:21.939Z,23.60
2023-05-08T16:59:48.513Z,24.90
2023-05-08T17:02:18.698Z,24.05
2023-05-08T17:04:49.466Z,22.08
2023-05-08T17:07:17.160Z,21.35
2023-05-08T17:09:44.142Z,23.38
2023-05-08T17:12:10.928Z,21.60
2023-05-08T17:14:39.401Z,22.83
2023-05-08T17:17:06.896Z,20.02
2023-05-08T17:19:33.761Z,20.75
2023-05-08T17:22:00.513Z,20.40
2023-05-08T17:24:29.070Z,18.45
2023-05-08T17:26:55.841Z,19.92
2023-05-08T17:29:22.528Z,19.85
2023-05-08T17:31:49.282Z,19.80
2023-05-08T17:34:16.052Z,20.60
2023-05-08T17:36:42.740Z,17.55
2023-05-08T17:39:09.628Z,22.80
2023-05-08T17:41:36.493Z,19.83
2023-05-08T17:44:04.212Z,20.08
2023-05-08T17:46:30.968Z,21.45
2023-05-08T17:48:57.605Z,19.95
2023-05-08T17:51:24.347Z,23.10
2023-05-08T17:53:52.961Z,23.25
2023-05-08T17:56:21.272Z,23.30
2023-05-08T17:58:47.913Z,24.75
2023-05-08T18:01:14.748Z,24.75
2023-05-08T18:03:41.891Z,24.80
2023-05-08T18:06:08.639Z,20.73
2023-05-08T18:08:35.426Z,22.58
2023-05-08T18:11:02.082Z,27.88
2023-05-08T18:13:28.826Z,27.35
2023-05-08T18:15:55.512Z,22.17
2023-05-08T18:18:22.261Z,27.75
2023-05-08T18:20:48.920Z,27.75
2023-05-08T18:23:15.918Z,25.65
2023-05-08T18:25:42.824Z,26.83
2023-05-08T18:28:09.471Z,27.02
2023-05-08T18:30:38.128Z,25.10
2023-05-08T18:33:04.757Z,24.85
2023-05-08T18:35:31.635Z,25.67
2023-05-08T18:37:58.236Z,25.77
2023-05-08T18:40:25.004Z,24.50
2023-05-08T18:42:51.704Z,21.15
2023-05-08T18:45:18.522Z,23.83
2023-05-08T18:47:45.181Z,23.73
2023-05-08T18:50:12.172Z,25.88
2023-05-08T18:52:39.191Z,23.77
2023-05-08T18:55:06.379Z,26.02
2023-05-08T18:57:33.074Z,25.38
2023-05-08T18:59:59.697Z,22.23
2023-05-08T19:02:27.973Z,24.02
2023-05-08T19:04:54.788Z,22.35
2023-05-08T19:07:21.582Z,21.50
2023-05-08T19:09:48.298Z,25.50
2023-05-08T19:12:15.014Z,22.75
2023-05-08T19:14:41.694Z,22.75
2023-05-08T19:17:08.323Z,23.65
2023-05-08T19:19:35.020Z,22.70
2023-05-08T19:22:01.676Z,22.88
2023-05-08T19:24:29.874Z,26.17
2023-05-08T19:26:57.522Z,22.48
2023-05-08T19:29:24.342Z,23.42
2023-05-08T19:31:51.207Z,24.02
2023-05-08T19:34:18.115Z,21.75
2023-05-08T19:36:44.749Z,24.80
2023-05-08T19:39:11.341Z,23.95
2023-05-08T19:41:37.978Z,24.58
2023-05-08T19:44:04.622Z,26.42
2023-05-08T19:46:31.338Z,26.75
2023-05-08T19:48:58.036Z,25.70
2023-05-08T19:51:24.896Z,23.83
2023-05-08T19:53:51.527Z,26.25
2023-05-08T19:56:18.173Z,26.20
2023-05-08T19:58:44.866Z,23.23
2023-05-08T20:01:11.590Z,25.80
2023-05-08T20:03:38.421Z,25.33
2023-05-08T20:06:05.369Z,25.23
2023-05-08T20:08:32.059Z,24.30
2023-05-08T20:11:02.303Z,26.42
2023-05-08T20:13:28.932Z,24.58
2023-05-08T20:15:55.705Z,24.00
2023-05-08T20:18:22.372Z,22.58
2023-05-08T20:20:49.007Z,24.75
2023-05-08T20:23:15.781Z,24.95
2023-05-08T20:25:46.100Z,26.33
2023-05-08T20:28:12.710Z,25.83
2023-05-08T20:30:39.475Z,24.05
2023-05-08T20:33:06.248Z,26.15
2023-05-08T20:35:33.689Z,28.17
2023-05-08T20:38:00.486Z,27.10
2023-05-08T20:40:27.180Z,28.13
2023-05-08T20:42:53.791Z,28.27
2023-05-08T20:45:20.421Z,27.13
2023-05-08T20:47:47.351Z,27.77
2023-05-08T20:50:16.158Z,27.60
2023-05-08T20:52:43.140Z,27.15
2023-05-08T20:55:10.151Z,25.85
2023-05-08T20:57:38.872Z,27.98
2023-05-08T21:00:06.368Z,30.30
2023-05-08T21:02:33.827Z,29.77
2023-05-08T21:05:00.788Z,33.42
2023-05-08T21:07:27.474Z,31.88
2023-05-08T21:09:54.062Z,31.33
2023-05-08T21:12:20.752Z,31.77
2023-05-08T21:14:47.414Z,33.00
2023-05-08T21:17:14.129Z,30.27
2023-05-08T21:19:40.837Z,31.17
2023-05-08T21:22:09.261Z,33.33
2023-05-08T21:24:37.183Z,32.42
2023-05-08T21:27:03.973Z,31.27
2023-05-08T21:29:30.607Z,34.13
2023-05-08T21:31:57.391Z,29.50
2023-05-08T21:34:24.214Z,30.02
2023-05-08T21:36:50.918Z,31.77
2023-05-08T21:39:17.580Z,30.38
2023-05-08T21:41:44.610Z,29.48
2023-05-08T21:44:15.319Z,29.48
2023-05-08T21:46:42.053Z,32.50
2023-05-08T21:49:08.673Z,32.15
2023-05-08T21:51:35.631Z,30.48
2023-05-08T21:54:02.260Z,32.92
2023-05-08T21:56:28.905Z,31.58
2023-05-08T21:58:55.679Z,30.25
2023-05-08T22:01:22.457Z,30.42
2023-05-08T22:03:49.476Z,32.30
2023-05-08T22:06:16.193Z,32.25
2023-05-08T22:08:42.868Z,33.22
2023-05-08T22:11:09.637Z,30.95
2023-05-08T22:13:36.539Z,31.75
2023-05-08T22:16:03.440Z,32.83
2023-05-08T22:18:30.118Z,34.25
2023-05-08T22:20:56.858Z,31.27
2023-05-08T22:23:23.518Z,31.52
2023-05-08T22:25:51.590Z,29.98
2023-05-08T22:28:18.234Z,27.75
2023-05-08T22:30:44.934Z,30.05
2023-05-08T22:33:11.571Z,28.40
2023-05-08T22:35:38.317Z,28.23
2023-05-08T22:38:04.973Z,23.73
2023-05-08T22:40:31.740Z,22.63
2023-05-08T22:42:59.020Z,21.23
2023-05-08T22:45:26.968Z,19.88
2023-05-08T22:47:54.554Z,19.23
2023-05-08T22:50:21.504Z,20.42
2023-05-08T22:52:48.156Z,19.15
2023-05-08T22:55:15.723Z,19.35
2023-05-08T22:57:42.798Z,15.93
2023-05-08T23:00:10.316Z,17.27
2023-05-08T23:02:37.027Z,16.42
2023-05-08T23:05:03.968Z,16.73
2023-05-08T23:07:30.781Z,18.17
2023-05-08T23:09:57.492Z,16.90
2023-05-08T23:12:24.172Z,17.45
2023-05-08T23:14:51.476Z,17.63
2023-05-08T23:17:18.128Z,18.33
2023-05-08T23:19:45.527Z,18.58
2023-05-08T23:22:12.272Z,17.88
2023-05-08T23:24:38.985Z,18.80
2023-05-08T23:27:05.711Z,18.38
2023-05-08T23:29:32.333Z,19.17
2023-05-08T23:31:59.648Z,18.08
2023-05-08T23:34:26.264Z,18.58
2023-05-08T23:36:53.048Z,18.65
2023-05-08T23:39:19.752Z,19.17
2023-05-08T23:41:46.393Z,19.83
2023-05-08T23:44:13.133Z,21.23
2023-05-08T23:46:39.842Z,20.95
2023-05-08T23:49:07.104Z,21.42
2023-05-08T23:51:34.117Z,23.42
2023-05-08T23:54:01.089Z,20.17
2023-05-08T23:56:27.756Z,20.73
2023-05-08T23:58:54.386Z,23.17
